sensor_id;sensor_type;location;lat;lon;timestamp;pressure;altitude;pressure_sealevel;temperature;humidity
21644;BME280;10983;51.982;9.226;2023-12-14T00:01:20;99105.47;;;7.14;100.00
21644;BME280;10983;51.982;9.226;2023-12-14T00:03:50;99114.78;;;7.17;100.00
21644;BME280;10983;51.982;9.226;2023-12-14T00:06:18;99117.53;;;7.10;100.00
21644;BME280;10983;51.982;9.226;2023-12-14T00:08:45;99113.16;;;7.16;100.00
21644;BME280;10983;51.982;9.226;2023-12-14T00:11:13;99123.38;;;7.24;100.00
21644;BME280;10983;51.982;9.226;2023-12-14T00:13:42;99123.13;;;7.14;100.00
21644;BME280;10983;51.982;9.226;2023-12-14T00:16:09;99135.91;;;7.17;100.00
21644;BME280;10983;51.982;9.226;2023-12-14T00:18:38;99133.38;;;7.10;100.00
21644;BME280;10983;51.982;9.226;2023-12-14T00:21:07;99138.09;;;7.20;100.00
21644;BME280;10983;51.982;9.226;2023-12-14T00:23:34;99137.75;;;7.05;100.00
21644;BME280;10983;51.982;9.226;2023-12-14T00:26:02;99143.47;;;7.02;100.00
21644;BME280;10983;51.982;9.226;2023-12-14T00:28:30;99150.75;;;7.06;100.00
21644;BME280;10983;51.982;9.226;2023-12-14T00:31:01;99147.75;;;7.03;100.00
21644;BME280;10983;51.982;9.226;2023-12-14T00:33:29;99150.38;;;7.03;100.00
21644;BME280;10983;51.982;9.226;2023-12-14T00:35:56;99130.63;;;6.82;100.00
21644;BME280;10983;51.982;9.226;2023-12-14T00:38:24;99140.38;;;6.70;100.00
21644;BME280;10983;51.982;9.226;2023-12-14T00:40:51;99146.47;;;6.82;100.00
21644;BME280;10983;51.982;9.226;2023-12-14T00:43:19;99149.00;;;6.89;100.00
21644;BME280;10983;51.982;9.226;2023-12-14T00:45:47;99134.66;;;6.62;100.00
21644;BME280;10983;51.982;9.226;2023-12-14T00:48:19;99152.44;;;6.67;100.00
21644;BME280;10983;51.982;9.226;2023-12-14T00:50:46;99163.22;;;6.65;100.00
21644;BME280;10983;51.982;9.226;2023-12-14T00:53:14;99161.16;;;6.67;100.00
21644;BME280;10983;51.982;9.226;2023-12-14T00:55:41;99169.91;;;6.68;100.00
21644;BME280;10983;51.982;9.226;2023-12-14T00:58:09;99159.69;;;6.82;100.00
21644;BME280;10983;51.982;9.226;2023-12-14T01:00:36;99161.19;;;6.78;100.00
21644;BME280;10983;51.982;9.226;2023-12-14T01:03:04;99159.94;;;6.81;100.00
21644;BME280;10983;51.982;9.226;2023-12-14T01:05:33;99156.69;;;6.79;100.00
21644;BME280;10983;51.982;9.226;2023-12-14T01:08:01;99160.16;;;6.79;100.00
21644;BME280;10983;51.982;9.226;2023-12-14T01:10:29;99163.34;;;6.81;100.00
21644;BME280;10983;51.982;9.226;2023-12-14T01:12:57;99166.69;;;6.88;100.00
21644;BME280;10983;51.982;9.226;2023-12-14T01:15:24;99171.06;;;6.83;100.00
21644;BME280;10983;51.982;9.226;2023-12-14T01:17:52;99176.69;;;6.86;100.00
21644;BME280;10983;51.982;9.226;2023-12-14T01:20:19;99089.66;;;6.05;100.00
21644;BME280;10983;51.982;9.226;2023-12-14T01:22:48;99188.63;;;6.66;100.00
21644;BME280;10983;51.982;9.226;2023-12-14T01:25:16;99174.53;;;6.43;100.00
21644;BME280;10983;51.982;9.226;2023-12-14T01:27:43;99187.09;;;6.59;100.00
21644;BME280;10983;51.982;9.226;2023-12-14T01:30:11;99197.91;;;6.57;100.00
21644;BME280;10983;51.982;9.226;2023-12-14T01:32:38;99197.63;;;6.47;100.00
21644;BME280;10983;51.982;9.226;2023-12-14T01:35:07;99194.66;;;6.44;100.00
21644;BME280;10983;51.982;9.226;2023-12-14T01:37:35;99203.03;;;6.41;100.00
21644;BME280;10983;51.982;9.226;2023-12-14T01:40:05;99207.13;;;6.37;100.00
21644;BME280;10983;51.982;9.226;2023-12-14T01:42:33;99208.31;;;6.41;100.00
21644;BME280;10983;51.982;9.226;2023-12-14T01:45:01;99218.94;;;6.34;100.00
21644;BME280;10983;51.982;9.226;2023-12-14T01:47:30;99223.84;;;6.31;100.00
21644;BME280;10983;51.982;9.226;2023-12-14T01:49:57;99220.06;;;6.27;100.00
21644;BME280;10983;51.982;9.226;2023-12-14T01:52:25;99230.47;;;6.22;100.00
21644;BME280;10983;51.982;9.226;2023-12-14T01:54:52;99240.84;;;6.35;100.00
21644;BME280;10983;51.982;9.226;2023-12-14T01:57:24;99236.72;;;6.27;100.00
21644;BME280;10983;51.982;9.226;2023-12-14T01:59:51;99251.00;;;6.20;100.00
21644;BME280;10983;51.982;9.226;2023-12-14T02:02:19;99264.97;;;6.09;100.00
21644;BME280;10983;51.982;9.226;2023-12-14T02:04:46;99271.34;;;6.19;100.00
21644;BME280;10983;51.982;9.226;2023-12-14T02:07:14;99272.22;;;6.13;100.00
21644;BME280;10983;51.982;9.226;2023-12-14T02:09:41;99277.44;;;6.02;100.00
21644;BME280;10983;51.982;9.226;2023-12-14T02:12:09;99279.31;;;5.95;100.00
21644;BME280;10983;51.982;9.226;2023-12-14T02:14:38;99285.19;;;5.97;100.00
21644;BME280;10983;51.982;9.226;2023-12-14T02:17:07;99296.38;;;5.93;100.00
21644;BME280;10983;51.982;9.226;2023-12-14T02:19:35;99295.81;;;5.91;100.00
21644;BME280;10983;51.982;9.226;2023-12-14T02:22:02;99295.41;;;5.69;100.00
21644;BME280;10983;51.982;9.226;2023-12-14T02:25:03;99293.94;;;5.73;100.00
21644;BME280;10983;51.982;9.226;2023-12-14T02:27:31;99307.94;;;5.74;100.00
21644;BME280;10983;51.982;9.226;2023-12-14T02:29:58;99314.25;;;5.73;100.00
21644;BME280;10983;51.982;9.226;2023-12-14T02:32:26;99326.25;;;5.69;100.00
21644;BME280;10983;51.982;9.226;2023-12-14T02:34:53;99331.38;;;5.64;100.00
21644;BME280;10983;51.982;9.226;2023-12-14T02:37:21;99332.59;;;5.61;100.00
21644;BME280;10983;51.982;9.226;2023-12-14T02:39:48;99350.63;;;5.64;100.00
21644;BME280;10983;51.982;9.226;2023-12-14T02:42:17;99348.03;;;5.58;100.00
21644;BME280;10983;51.982;9.226;2023-12-14T02:44:44;99354.84;;;5.48;100.00
21644;BME280;10983;51.982;9.226;2023-12-14T02:47:12;99365.03;;;5.38;100.00
21644;BME280;10983;51.982;9.226;2023-12-14T02:49:41;99361.69;;;5.24;100.00
21644;BME280;10983;51.982;9.226;2023-12-14T02:52:08;99374.56;;;5.39;100.00
21644;BME280;10983;51.982;9.226;2023-12-14T02:54:36;99376.06;;;5.28;100.00
21644;BME280;10983;51.982;9.226;2023-12-14T02:57:04;99362.97;;;5.15;100.00
21644;BME280;10983;51.982;9.226;2023-12-14T02:59:32;99367.63;;;5.20;100.00
21644;BME280;10983;51.982;9.226;2023-12-14T03:02:01;99378.69;;;5.28;100.00
21644;BME280;10983;51.982;9.226;2023-12-14T03:04:29;99383.13;;;5.34;100.00
21644;BME280;10983;51.982;9.226;2023-12-14T03:06:56;99389.47;;;5.27;100.00
21644;BME280;10983;51.982;9.226;2023-12-14T03:09:29;99386.13;;;5.38;100.00
21644;BME280;10983;51.982;9.226;2023-12-14T03:11:58;99379.09;;;5.32;100.00
21644;BME280;10983;51.982;9.226;2023-12-14T03:14:33;99387.94;;;5.44;100.00
21644;BME280;10983;51.982;9.226;2023-12-14T03:17:00;99384.69;;;5.42;100.00
21644;BME280;10983;51.982;9.226;2023-12-14T03:19:28;99397.69;;;5.37;100.00
21644;BME280;10983;51.982;9.226;2023-12-14T03:21:58;99403.44;;;5.27;100.00
21644;BME280;10983;51.982;9.226;2023-12-14T03:24:26;99412.38;;;5.26;100.00
21644;BME280;10983;51.982;9.226;2023-12-14T03:26:54;99403.50;;;5.21;100.00
21644;BME280;10983;51.982;9.226;2023-12-14T03:29:21;99412.88;;;5.10;100.00
21644;BME280;10983;51.982;9.226;2023-12-14T03:31:50;99423.84;;;5.07;100.00
21644;BME280;10983;51.982;9.226;2023-12-14T03:34:18;99423.97;;;5.19;100.00
21644;BME280;10983;51.982;9.226;2023-12-14T03:36:45;99423.38;;;5.17;100.00
21644;BME280;10983;51.982;9.226;2023-12-14T03:39:13;99422.19;;;5.13;100.00
21644;BME280;10983;51.982;9.226;2023-12-14T03:41:40;99425.41;;;5.15;100.00
21644;BME280;10983;51.982;9.226;2023-12-14T03:44:08;99428.06;;;5.08;100.00
21644;BME280;10983;51.982;9.226;2023-12-14T03:46:35;99443.28;;;5.13;100.00
21644;BME280;10983;51.982;9.226;2023-12-14T03:49:04;99435.56;;;5.11;100.00
21644;BME280;10983;51.982;9.226;2023-12-14T03:51:32;99441.00;;;5.16;100.00
21644;BME280;10983;51.982;9.226;2023-12-14T03:53:59;99437.56;;;5.16;100.00
21644;BME280;10983;51.982;9.226;2023-12-14T03:56:27;99447.34;;;5.09;100.00
21644;BME280;10983;51.982;9.226;2023-12-14T03:58:54;99448.59;;;5.00;100.00
21644;BME280;10983;51.982;9.226;2023-12-14T04:01:23;99454.06;;;5.05;100.00
21644;BME280;10983;51.982;9.226;2023-12-14T04:03:51;99459.69;;;5.08;100.00
21644;BME280;10983;51.982;9.226;2023-12-14T04:06:19;99465.22;;;4.94;100.00
21644;BME280;10983;51.982;9.226;2023-12-14T04:08:47;99472.75;;;4.91;100.00
21644;BME280;10983;51.982;9.226;2023-12-14T04:11:14;99475.00;;;4.87;100.00
21644;BME280;10983;51.982;9.226;2023-12-14T04:13:42;99483.50;;;4.89;100.00
21644;BME280;10983;51.982;9.226;2023-12-14T04:16:09;99482.50;;;4.84;100.00
21644;BME280;10983;51.982;9.226;2023-12-14T04:18:37;99493.63;;;4.86;100.00
21644;BME280;10983;51.982;9.226;2023-12-14T04:21:06;99486.94;;;4.90;100.00
21644;BME280;10983;51.982;9.226;2023-12-14T04:23:35;99500.72;;;4.92;100.00
21644;BME280;10983;51.982;9.226;2023-12-14T04:26:02;99499.09;;;4.91;100.00
21644;BME280;10983;51.982;9.226;2023-12-14T04:28:30;99502.38;;;4.86;100.00
21644;BME280;10983;51.982;9.226;2023-12-14T04:30:57;99508.44;;;4.87;100.00
21644;BME280;10983;51.982;9.226;2023-12-14T04:33:25;99508.22;;;4.88;100.00
21644;BME280;10983;51.982;9.226;2023-12-14T04:35:52;99509.66;;;4.84;100.00
21644;BME280;10983;51.982;9.226;2023-12-14T04:38:20;99505.59;;;4.88;100.00
21644;BME280;10983;51.982;9.226;2023-12-14T04:40:49;99513.47;;;4.88;100.00
21644;BME280;10983;51.982;9.226;2023-12-14T04:43:16;99510.84;;;4.88;100.00
21644;BME280;10983;51.982;9.226;2023-12-14T04:45:44;99514.31;;;4.82;100.00
21644;BME280;10983;51.982;9.226;2023-12-14T04:48:11;99515.72;;;4.85;100.00
21644;BME280;10983;51.982;9.226;2023-12-14T04:50:39;99512.09;;;4.79;100.00
21644;BME280;10983;51.982;9.226;2023-12-14T04:53:07;99507.22;;;4.83;100.00
21644;BME280;10983;51.982;9.226;2023-12-14T04:55:36;99513.69;;;4.87;100.00
21644;BME280;10983;51.982;9.226;2023-12-14T04:58:05;99514.25;;;5.01;100.00
21644;BME280;10983;51.982;9.226;2023-12-14T05:00:32;99508.38;;;5.00;100.00
21644;BME280;10983;51.982;9.226;2023-12-14T05:03:00;99512.84;;;4.93;100.00
21644;BME280;10983;51.982;9.226;2023-12-14T05:05:27;99520.78;;;4.86;100.00
21644;BME280;10983;51.982;9.226;2023-12-14T05:07:55;99526.44;;;4.90;100.00
21644;BME280;10983;51.982;9.226;2023-12-14T05:10:22;99539.41;;;4.91;100.00
21644;BME280;10983;51.982;9.226;2023-12-14T05:12:50;99543.28;;;4.82;100.00
21644;BME280;10983;51.982;9.226;2023-12-14T05:15:18;99545.94;;;4.82;100.00
21644;BME280;10983;51.982;9.226;2023-12-14T05:17:46;99549.16;;;4.84;100.00
21644;BME280;10983;51.982;9.226;2023-12-14T05:20:13;99556.25;;;4.84;100.00
21644;BME280;10983;51.982;9.226;2023-12-14T05:22:41;99548.34;;;4.84;100.00
21644;BME280;10983;51.982;9.226;2023-12-14T05:25:09;99553.78;;;4.95;100.00
21644;BME280;10983;51.982;9.226;2023-12-14T05:27:37;99549.56;;;4.88;100.00
21644;BME280;10983;51.982;9.226;2023-12-14T05:30:05;99558.44;;;4.93;100.00
21644;BME280;10983;51.982;9.226;2023-12-14T05:32:35;99556.03;;;4.92;100.00
21644;BME280;10983;51.982;9.226;2023-12-14T05:35:05;99569.59;;;4.89;100.00
21644;BME280;10983;51.982;9.226;2023-12-14T05:37:33;99574.84;;;4.89;100.00
21644;BME280;10983;51.982;9.226;2023-12-14T05:40:01;99573.47;;;4.86;100.00
21644;BME280;10983;51.982;9.226;2023-12-14T05:42:28;99571.22;;;4.77;100.00
21644;BME280;10983;51.982;9.226;2023-12-14T05:44:56;99579.13;;;4.77;100.00
21644;BME280;10983;51.982;9.226;2023-12-14T05:47:25;99581.16;;;4.88;100.00
21644;BME280;10983;51.982;9.226;2023-12-14T05:49:54;99583.16;;;4.86;100.00
21644;BME280;10983;51.982;9.226;2023-12-14T05:52:22;99586.00;;;4.91;100.00
21644;BME280;10983;51.982;9.226;2023-12-14T05:54:49;99590.66;;;4.95;100.00
21644;BME280;10983;51.982;9.226;2023-12-14T05:57:16;99601.59;;;4.99;100.00
21644;BME280;10983;51.982;9.226;2023-12-14T05:59:44;99601.81;;;4.91;100.00
21644;BME280;10983;51.982;9.226;2023-12-14T06:02:11;99615.19;;;4.89;100.00
21644;BME280;10983;51.982;9.226;2023-12-14T06:04:39;99618.41;;;4.98;100.00
21644;BME280;10983;51.982;9.226;2023-12-14T06:07:14;99622.66;;;4.92;100.00
21644;BME280;10983;51.982;9.226;2023-12-14T06:09:41;99635.63;;;4.81;100.00
21644;BME280;10983;51.982;9.226;2023-12-14T06:12:09;99633.63;;;4.83;100.00
21644;BME280;10983;51.982;9.226;2023-12-14T06:14:36;99637.25;;;4.88;100.00
21644;BME280;10983;51.982;9.226;2023-12-14T06:17:04;99644.78;;;4.78;100.00
21644;BME280;10983;51.982;9.226;2023-12-14T06:19:31;99654.69;;;4.89;100.00
21644;BME280;10983;51.982;9.226;2023-12-14T06:21:59;99652.47;;;4.86;100.00
21644;BME280;10983;51.982;9.226;2023-12-14T06:24:28;99654.50;;;4.91;100.00
21644;BME280;10983;51.982;9.226;2023-12-14T06:26:55;99662.19;;;4.99;100.00
21644;BME280;10983;51.982;9.226;2023-12-14T06:29:23;99666.03;;;4.90;100.00
21644;BME280;10983;51.982;9.226;2023-12-14T06:31:50;99677.38;;;4.84;100.00
21644;BME280;10983;51.982;9.226;2023-12-14T06:34:20;99682.47;;;4.92;100.00
21644;BME280;10983;51.982;9.226;2023-12-14T06:36:48;99690.75;;;4.89;100.00
21644;BME280;10983;51.982;9.226;2023-12-14T06:39:15;99697.03;;;4.88;100.00
21644;BME280;10983;51.982;9.226;2023-12-14T06:41:48;99707.38;;;4.89;100.00
21644;BME280;10983;51.982;9.226;2023-12-14T06:44:17;99715.28;;;4.89;100.00
21644;BME280;10983;51.982;9.226;2023-12-14T06:46:45;99710.22;;;4.81;100.00
21644;BME280;10983;51.982;9.226;2023-12-14T06:49:12;99720.09;;;4.73;100.00
21644;BME280;10983;51.982;9.226;2023-12-14T06:51:40;99720.13;;;4.79;100.00
21644;BME280;10983;51.982;9.226;2023-12-14T06:54:07;99715.06;;;4.71;100.00
21644;BME280;10983;51.982;9.226;2023-12-14T06:56:36;99711.81;;;4.76;100.00
21644;BME280;10983;51.982;9.226;2023-12-14T06:59:05;99723.78;;;4.78;100.00
21644;BME280;10983;51.982;9.226;2023-12-14T07:01:32;99731.50;;;4.86;100.00
21644;BME280;10983;51.982;9.226;2023-12-14T07:04:00;99734.50;;;4.77;100.00
21644;BME280;10983;51.982;9.226;2023-12-14T07:06:29;99743.22;;;4.90;100.00
21644;BME280;10983;51.982;9.226;2023-12-14T07:08:56;99751.13;;;4.90;100.00
21644;BME280;10983;51.982;9.226;2023-12-14T07:11:24;99757.41;;;4.89;100.00
21644;BME280;10983;51.982;9.226;2023-12-14T07:13:51;99767.75;;;4.97;100.00
21644;BME280;10983;51.982;9.226;2023-12-14T07:16:20;99774.03;;;5.02;100.00
21644;BME280;10983;51.982;9.226;2023-12-14T07:18:47;99789.03;;;5.15;100.00
21644;BME280;10983;51.982;9.226;2023-12-14T07:21:15;99796.72;;;5.10;100.00
21644;BME280;10983;51.982;9.226;2023-12-14T07:23:43;99798.13;;;5.12;100.00
21644;BME280;10983;51.982;9.226;2023-12-14T07:26:10;99814.78;;;5.13;100.00
21644;BME280;10983;51.982;9.226;2023-12-14T07:28:37;99816.59;;;5.12;100.00
21644;BME280;10983;51.982;9.226;2023-12-14T07:31:05;99828.53;;;5.15;100.00
21644;BME280;10983;51.982;9.226;2023-12-14T07:33:34;99843.56;;;5.08;100.00
21644;BME280;10983;51.982;9.226;2023-12-14T07:36:04;99850.81;;;5.06;100.00
21644;BME280;10983;51.982;9.226;2023-12-14T07:38:33;99862.41;;;5.05;100.00
21644;BME280;10983;51.982;9.226;2023-12-14T07:41:00;99862.41;;;5.05;100.00
21644;BME280;10983;51.982;9.226;2023-12-14T07:43:29;99878.22;;;5.05;100.00
21644;BME280;10983;51.982;9.226;2023-12-14T07:45:59;99888.91;;;4.91;100.00
21644;BME280;10983;51.982;9.226;2023-12-14T07:48:26;99896.59;;;4.92;100.00
21644;BME280;10983;51.982;9.226;2023-12-14T07:51:04;99902.31;;;4.96;100.00
21644;BME280;10983;51.982;9.226;2023-12-14T07:53:31;99905.97;;;5.01;100.00
21644;BME280;10983;51.982;9.226;2023-12-14T07:55:59;99919.94;;;5.01;100.00
21644;BME280;10983;51.982;9.226;2023-12-14T07:58:28;99922.38;;;5.03;100.00
21644;BME280;10983;51.982;9.226;2023-12-14T08:00:56;99927.06;;;5.07;100.00
21644;BME280;10983;51.982;9.226;2023-12-14T08:03:23;99927.84;;;5.01;100.00
21644;BME280;10983;51.982;9.226;2023-12-14T08:05:51;99940.00;;;5.02;100.00
21644;BME280;10983;51.982;9.226;2023-12-14T08:08:20;99941.63;;;5.03;100.00
21644;BME280;10983;51.982;9.226;2023-12-14T08:10:47;99956.22;;;5.00;100.00
21644;BME280;10983;51.982;9.226;2023-12-14T08:13:15;99960.88;;;5.04;100.00
21644;BME280;10983;51.982;9.226;2023-12-14T08:15:42;99959.63;;;4.94;100.00
21644;BME280;10983;51.982;9.226;2023-12-14T08:18:09;99954.78;;;4.97;100.00
21644;BME280;10983;51.982;9.226;2023-12-14T08:20:37;99963.25;;;4.86;100.00
21644;BME280;10983;51.982;9.226;2023-12-14T08:23:05;99979.22;;;4.85;100.00
21644;BME280;10983;51.982;9.226;2023-12-14T08:25:35;99982.47;;;4.80;100.00
21644;BME280;10983;51.982;9.226;2023-12-14T08:28:04;99981.22;;;4.76;100.00
21644;BME280;10983;51.982;9.226;2023-12-14T08:30:32;99985.31;;;4.79;100.00
21644;BME280;10983;51.982;9.226;2023-12-14T08:33:00;99988.97;;;4.84;100.00
21644;BME280;10983;51.982;9.226;2023-12-14T08:35:28;99998.06;;;4.82;100.00
21644;BME280;10983;51.982;9.226;2023-12-14T08:37:55;100005.81;;;4.90;100.00
21644;BME280;10983;51.982;9.226;2023-12-14T08:40:23;100008.25;;;4.91;100.00
21644;BME280;10983;51.982;9.226;2023-12-14T08:42:52;100007.63;;;4.89;100.00
21644;BME280;10983;51.982;9.226;2023-12-14T08:45:19;100016.75;;;4.87;100.00
21644;BME280;10983;51.982;9.226;2023-12-14T08:47:47;100018.91;;;4.70;100.00
21644;BME280;10983;51.982;9.226;2023-12-14T08:50:15;100032.31;;;4.82;100.00
21644;BME280;10983;51.982;9.226;2023-12-14T08:52:42;100032.88;;;4.71;100.00
21644;BME280;10983;51.982;9.226;2023-12-14T08:55:10;100043.19;;;4.72;100.00
21644;BME280;10983;51.982;9.226;2023-12-14T08:57:38;100052.09;;;4.71;100.00
21644;BME280;10983;51.982;9.226;2023-12-14T09:00:08;100063.50;;;4.78;100.00
21644;BME280;10983;51.982;9.226;2023-12-14T09:02:36;100066.75;;;4.80;100.00
21644;BME280;10983;51.982;9.226;2023-12-14T09:05:07;100069.34;;;4.74;100.00
21644;BME280;10983;51.982;9.226;2023-12-14T09:07:40;100077.00;;;4.69;100.00
21644;BME280;10983;51.982;9.226;2023-12-14T09:10:08;100089.22;;;4.76;100.00
21644;BME280;10983;51.982;9.226;2023-12-14T09:12:36;100094.91;;;4.80;100.00
21644;BME280;10983;51.982;9.226;2023-12-14T09:15:04;100100.59;;;4.83;100.00
21644;BME280;10983;51.982;9.226;2023-12-14T09:17:35;100109.44;;;5.03;100.00
21644;BME280;10983;51.982;9.226;2023-12-14T09:20:05;100113.78;;;5.17;100.00
21644;BME280;10983;51.982;9.226;2023-12-14T09:22:32;100125.03;;;5.38;100.00
21644;BME280;10983;51.982;9.226;2023-12-14T09:25:00;100128.59;;;5.24;100.00
21644;BME280;10983;51.982;9.226;2023-12-14T09:27:28;100138.91;;;5.13;100.00
21644;BME280;10983;51.982;9.226;2023-12-14T09:29:56;100139.91;;;5.12;100.00
21644;BME280;10983;51.982;9.226;2023-12-14T09:32:23;100152.16;;;5.32;100.00
21644;BME280;10983;51.982;9.226;2023-12-14T09:34:52;100163.34;;;5.34;100.00
21644;BME280;10983;51.982;9.226;2023-12-14T09:37:22;100158.81;;;5.68;100.00
21644;BME280;10983;51.982;9.226;2023-12-14T09:39:50;100167.13;;;5.65;100.00
21644;BME280;10983;51.982;9.226;2023-12-14T09:42:19;100177.25;;;5.62;100.00
21644;BME280;10983;51.982;9.226;2023-12-14T09:44:47;100186.19;;;5.61;100.00
21644;BME280;10983;51.982;9.226;2023-12-14T09:47:15;100195.69;;;5.56;100.00
21644;BME280;10983;51.982;9.226;2023-12-14T09:49:42;100193.25;;;5.60;100.00
21644;BME280;10983;51.982;9.226;2023-12-14T09:52:12;100197.81;;;5.73;100.00
21644;BME280;10983;51.982;9.226;2023-12-14T09:54:39;100209.06;;;5.88;100.00
21644;BME280;10983;51.982;9.226;2023-12-14T09:57:07;100217.94;;;5.80;100.00
21644;BME280;10983;51.982;9.226;2023-12-14T09:59:34;100223.16;;;5.67;100.00
21644;BME280;10983;51.982;9.226;2023-12-14T10:02:09;100240.69;;;5.54;100.00
21644;BME280;10983;51.982;9.226;2023-12-14T10:04:37;100216.63;;;5.30;100.00
21644;BME280;10983;51.982;9.226;2023-12-14T10:07:05;100246.47;;;5.37;100.00
21644;BME280;10983;51.982;9.226;2023-12-14T10:09:37;100250.59;;;5.46;100.00
21644;BME280;10983;51.982;9.226;2023-12-14T10:12:06;100242.09;;;5.50;100.00
21644;BME280;10983;51.982;9.226;2023-12-14T10:14:37;100257.16;;;5.56;100.00
21644;BME280;10983;51.982;9.226;2023-12-14T10:17:18;100261.06;;;5.66;100.00
21644;BME280;10983;51.982;9.226;2023-12-14T10:19:47;100266.19;;;5.74;100.00
21644;BME280;10983;51.982;9.226;2023-12-14T10:22:17;100274.47;;;5.65;100.00
21644;BME280;10983;51.982;9.226;2023-12-14T10:24:47;100280.31;;;5.60;100.00
21644;BME280;10983;51.982;9.226;2023-12-14T10:27:17;100285.34;;;5.56;100.00
21644;BME280;10983;51.982;9.226;2023-12-14T10:29:45;100286.91;;;5.50;100.00
21644;BME280;10983;51.982;9.226;2023-12-14T10:32:13;100287.41;;;5.33;100.00
21644;BME280;10983;51.982;9.226;2023-12-14T10:34:41;100293.84;;;5.24;100.00
21644;BME280;10983;51.982;9.226;2023-12-14T10:37:09;100282.06;;;5.20;100.00
21644;BME280;10983;51.982;9.226;2023-12-14T10:39:37;100280.03;;;5.22;100.00
21644;BME280;10983;51.982;9.226;2023-12-14T10:42:13;100276.06;;;5.32;100.00
21644;BME280;10983;51.982;9.226;2023-12-14T10:44:50;100275.63;;;5.29;100.00
21644;BME280;10983;51.982;9.226;2023-12-14T10:47:45;100273.03;;;5.08;100.00
21644;BME280;10983;51.982;9.226;2023-12-14T10:50:14;100276.28;;;5.10;100.00
21644;BME280;10983;51.982;9.226;2023-12-14T10:52:42;100271.84;;;5.10;100.00
21644;BME280;10983;51.982;9.226;2023-12-14T10:55:18;100267.13;;;5.06;100.00
21644;BME280;10983;51.982;9.226;2023-12-14T10:57:57;100268.47;;;4.96;100.00
21644;BME280;10983;51.982;9.226;2023-12-14T11:00:28;100272.13;;;4.95;100.00
21644;BME280;10983;51.982;9.226;2023-12-14T11:02:57;100262.38;;;4.95;100.00
21644;BME280;10983;51.982;9.226;2023-12-14T11:05:27;100265.41;;;4.92;100.00
21644;BME280;10983;51.982;9.226;2023-12-14T11:08:00;100263.75;;;4.91;100.00
21644;BME280;10983;51.982;9.226;2023-12-14T11:10:37;100272.50;;;4.92;100.00
21644;BME280;10983;51.982;9.226;2023-12-14T11:13:09;100265.09;;;4.81;100.00
21644;BME280;10983;51.982;9.226;2023-12-14T11:15:46;100265.41;;;4.71;100.00
21644;BME280;10983;51.982;9.226;2023-12-14T11:18:25;100268.03;;;4.71;100.00
21644;BME280;10983;51.982;9.226;2023-12-14T11:20:55;100264.22;;;4.74;100.00
21644;BME280;10983;51.982;9.226;2023-12-14T11:23:29;100262.84;;;4.78;100.00
21644;BME280;10983;51.982;9.226;2023-12-14T11:26:00;100259.28;;;4.85;100.00
21644;BME280;10983;51.982;9.226;2023-12-14T11:28:39;100270.94;;;4.97;100.00
21644;BME280;10983;51.982;9.226;2023-12-14T11:31:12;100274.38;;;4.98;100.00
21644;BME280;10983;51.982;9.226;2023-12-14T11:33:39;100285.22;;;5.09;100.00
21644;BME280;10983;51.982;9.226;2023-12-14T11:36:11;100294.19;;;5.14;100.00
21644;BME280;10983;51.982;9.226;2023-12-14T11:38:41;100300.91;;;5.17;100.00
21644;BME280;10983;51.982;9.226;2023-12-14T11:41:08;100312.63;;;5.14;100.00
21644;BME280;10983;51.982;9.226;2023-12-14T11:43:44;100313.44;;;5.15;100.00
21644;BME280;10983;51.982;9.226;2023-12-14T11:46:17;100324.31;;;5.33;100.00
21644;BME280;10983;51.982;9.226;2023-12-14T11:48:46;100334.81;;;5.26;100.00
21644;BME280;10983;51.982;9.226;2023-12-14T11:51:15;100331.47;;;5.39;100.00
21644;BME280;10983;51.982;9.226;2023-12-14T11:53:43;100340.31;;;5.31;100.00
21644;BME280;10983;51.982;9.226;2023-12-14T11:56:11;100350.66;;;5.33;100.00
21644;BME280;10983;51.982;9.226;2023-12-14T11:58:40;100349.41;;;5.29;100.00
21644;BME280;10983;51.982;9.226;2023-12-14T12:01:15;100364.56;;;5.41;100.00
21644;BME280;10983;51.982;9.226;2023-12-14T12:03:43;100364.81;;;5.46;100.00
21644;BME280;10983;51.982;9.226;2023-12-14T12:06:19;100376.75;;;5.42;100.00
21644;BME280;10983;51.982;9.226;2023-12-14T12:08:47;100382.00;;;5.42;100.00
21644;BME280;10983;51.982;9.226;2023-12-14T12:11:19;100391.59;;;5.50;100.00
21644;BME280;10983;51.982;9.226;2023-12-14T12:13:52;100389.81;;;5.56;100.00
21644;BME280;10983;51.982;9.226;2023-12-14T12:16:23;100396.25;;;5.48;100.00
21644;BME280;10983;51.982;9.226;2023-12-14T12:18:51;100405.16;;;5.47;100.00
21644;BME280;10983;51.982;9.226;2023-12-14T12:21:20;100407.66;;;5.55;100.00
21644;BME280;10983;51.982;9.226;2023-12-14T12:23:47;100412.56;;;5.57;100.00
21644;BME280;10983;51.982;9.226;2023-12-14T12:26:15;100408.78;;;5.66;100.00
21644;BME280;10983;51.982;9.226;2023-12-14T12:28:43;100414.63;;;5.62;100.00
21644;BME280;10983;51.982;9.226;2023-12-14T12:31:14;100419.19;;;5.74;100.00
21644;BME280;10983;51.982;9.226;2023-12-14T12:33:44;100411.38;;;5.81;100.00
21644;BME280;10983;51.982;9.226;2023-12-14T12:36:13;100417.50;;;5.88;100.00
21644;BME280;10983;51.982;9.226;2023-12-14T12:38:42;100423.84;;;5.93;100.00
21644;BME280;10983;51.982;9.226;2023-12-14T12:41:10;100429.38;;;5.98;100.00
21644;BME280;10983;51.982;9.226;2023-12-14T12:43:37;100431.03;;;5.78;100.00
21644;BME280;10983;51.982;9.226;2023-12-14T12:46:05;100432.81;;;5.99;100.00
21644;BME280;10983;51.982;9.226;2023-12-14T12:48:33;100431.13;;;6.18;100.00
21644;BME280;10983;51.982;9.226;2023-12-14T12:51:04;100439.13;;;6.38;100.00
21644;BME280;10983;51.982;9.226;2023-12-14T12:53:31;100457.09;;;6.49;100.00
21644;BME280;10983;51.982;9.226;2023-12-14T12:55:59;100458.66;;;6.43;100.00
21644;BME280;10983;51.982;9.226;2023-12-14T12:58:28;100465.19;;;6.47;100.00
21644;BME280;10983;51.982;9.226;2023-12-14T13:00:56;100463.00;;;6.51;100.00
21644;BME280;10983;51.982;9.226;2023-12-14T13:03:24;100470.25;;;6.76;100.00
21644;BME280;10983;51.982;9.226;2023-12-14T13:05:51;100477.94;;;6.71;100.00